Chemtrans Elbe — A8PS9 — position and weather

sailwx.info

Track history (hours):
 
Tides and Currents Weather Stations Pressure Air Temp Water Temp Dewpoint Dewpoint Depression Visibility Wind Speed Wind Dir Waves Ship Positions

Chemtrans Elbe

Last reported at 2017-Nov-18 21:28 UTC. Time now 2017-Dec-18 05:14 UTC.
Position N 29°45' W 095°06'.
Warning: this ship's position is 29 days out of date.

Length 129 m; draft 6.2 m.

Type: Ship. MMSI: 636013825.

Date/timePositionNaut miles runAvg speedWind from/ knotsBaromVisibWave heightAir tempDewpointWater temp
2017-Nov-18 21:28N 29°45' W 095°06'1 3.2
2017-Nov-18 21:00N 29°46' W 095°04'4 8.3
2017-Nov-18 20:30N 29°43' W 095°01'5 9.6
2017-Nov-18 20:00N 29°39' W 094°58'611.3
2017-Nov-18 19:30N 29°34' W 094°55'612.2
2017-Nov-18 19:00N 29°28' W 094°51'612.1
2017-Nov-18 18:30N 29°23' W 094°49'0 0.0
2017-Nov-17 18:11N 29°23' W 094°48'313.6
2017-Nov-17 17:58N 29°25' W 094°50'613.5
2017-Nov-17 17:31N 29°31' W 094°53'612.4
2017-Nov-17 17:01N 29°36' W 094°57'611.2
2017-Nov-17 16:31N 29°41' W 094°59'4 8.7
2017-Nov-17 16:01N 29°44' W 095°03'3 5.6
2017-Nov-17 15:30N 29°45' W 095°06'3 6.6
2017-Nov-17 15:01N 29°45' W 095°10'3 6.3
2017-Nov-17 14:30N 29°43' W 095°13'3 5.9
2017-Nov-17 14:00N 29°44' W 095°17'1 1.4
2017-Nov-17 13:22N 29°45' W 095°17'0 0.0
2017-Nov-17 12:34N 29°45' W 095°17'0 0.0
2017-Nov-17 12:22N 29°45' W 095°17'0 0.0
2017-Nov-17 11:58N 29°45' W 095°17'0 0.0
2017-Nov-17 06:10N 29°45' W 095°17'0 0.0
2017-Nov-17 05:58N 29°45' W 095°17'0 0.0
2017-Nov-17 05:22N 29°45' W 095°17'0 0.0
2017-Nov-17 03:40N 29°45' W 095°17'0 0.0
2017-Nov-17 03:16N 29°45' W 095°17'0 0.0
2017-Nov-17 00:22N 29°45' W 095°17'0 0.0
2017-Nov-16 11:58N 29°45' W 095°17'0 0.0
2017-Nov-16 11:22N 29°45' W 095°17'0 0.0
2017-Nov-16 10:01N 29°45' W 095°17'0 0.9
2017-Nov-16 10:00N 29°45' W 095°17'0 0.5
2017-Nov-16 09:30N 29°45' W 095°17'2 3.9
2017-Nov-16 09:00N 29°44' W 095°15'3 5.2
2017-Nov-16 08:30N 29°44' W 095°12'3 5.8
2017-Nov-16 08:00N 29°44' W 095°09'3 6.6
2017-Nov-16 07:30N 29°45' W 095°06'4 7.5
2017-Nov-16 07:00N 29°44' W 095°02'4 8.9
2017-Nov-16 06:30N 29°40' W 094°59'612.6
2017-Nov-16 06:00N 29°35' W 094°56'612.9
2017-Nov-16 05:30N 29°29' W 094°52'612.7
2017-Nov-16 05:00N 29°23' W 094°49'  
Track history (hours):
 
Tides and Currents Weather Stations Pressure Air Temp Water Temp Dewpoint Dewpoint Depression Visibility Wind Speed Wind Dir Waves Ship Positions

Chemtrans Elbe

Last reported at 2017-Nov-18 21:28 UTC. Time now 2017-Dec-18 05:14 UTC.
Position N 29°45' W 095°06'.
Warning: this ship's position is 29 days out of date.

Length 129 m; draft 6.2 m.

Type: Ship. MMSI: 636013825.

Date/timePositionNaut miles runAvg speedWind from/ knotsBaromVisibWave heightAir tempDewpointWater temp
2017-Nov-18 21:28N 29°45' W 095°06'1 3.2
2017-Nov-18 21:00N 29°46' W 095°04'4 8.3
2017-Nov-18 20:30N 29°43' W 095°01'5 9.6
2017-Nov-18 20:00N 29°39' W 094°58'611.3
2017-Nov-18 19:30N 29°34' W 094°55'612.2
2017-Nov-18 19:00N 29°28' W 094°51'612.1
2017-Nov-18 18:30N 29°23' W 094°49'0 0.0
2017-Nov-17 18:11N 29°23' W 094°48'313.6
2017-Nov-17 17:58N 29°25' W 094°50'613.5
2017-Nov-17 17:31N 29°31' W 094°53'612.4
2017-Nov-17 17:01N 29°36' W 094°57'611.2
2017-Nov-17 16:31N 29°41' W 094°59'4 8.7
2017-Nov-17 16:01N 29°44' W 095°03'3 5.6
2017-Nov-17 15:30N 29°45' W 095°06'3 6.6
2017-Nov-17 15:01N 29°45' W 095°10'3 6.3
2017-Nov-17 14:30N 29°43' W 095°13'3 5.9
2017-Nov-17 14:00N 29°44' W 095°17'1 1.4
2017-Nov-17 13:22N 29°45' W 095°17'0 0.0
2017-Nov-17 12:34N 29°45' W 095°17'0 0.0
2017-Nov-17 12:22N 29°45' W 095°17'0 0.0
2017-Nov-17 11:58N 29°45' W 095°17'0 0.0
2017-Nov-17 06:10N 29°45' W 095°17'0 0.0
2017-Nov-17 05:58N 29°45' W 095°17'0 0.0
2017-Nov-17 05:22N 29°45' W 095°17'0 0.0
2017-Nov-17 03:40N 29°45' W 095°17'0 0.0
2017-Nov-17 03:16N 29°45' W 095°17'0 0.0
2017-Nov-17 00:22N 29°45' W 095°17'0 0.0
2017-Nov-16 11:58N 29°45' W 095°17'0 0.0
2017-Nov-16 11:22N 29°45' W 095°17'0 0.0
2017-Nov-16 10:01N 29°45' W 095°17'0 0.9
2017-Nov-16 10:00N 29°45' W 095°17'0 0.5
2017-Nov-16 09:30N 29°45' W 095°17'2 3.9
2017-Nov-16 09:00N 29°44' W 095°15'3 5.2
2017-Nov-16 08:30N 29°44' W 095°12'3 5.8
2017-Nov-16 08:00N 29°44' W 095°09'3 6.6
2017-Nov-16 07:30N 29°45' W 095°06'4 7.5
2017-Nov-16 07:00N 29°44' W 095°02'4 8.9
2017-Nov-16 06:30N 29°40' W 094°59'612.6
2017-Nov-16 06:00N 29°35' W 094°56'612.9
2017-Nov-16 05:30N 29°29' W 094°52'612.7
2017-Nov-16 05:00N 29°23' W 094°49'  

Dump ship's entire track history